sensor_id;sensor_type;location;lat;lon;timestamp;P1;durP1;ratioP1;P2;durP2;ratioP2
1026;SDS011;502;48.746;9.214;2024-01-27T00:00:20;3.00;;;1.87;;
1026;SDS011;502;48.746;9.214;2024-01-27T00:02:48;3.10;;;1.73;;
1026;SDS011;502;48.746;9.214;2024-01-27T00:05:15;2.60;;;2.00;;
1026;SDS011;502;48.746;9.214;2024-01-27T00:07:41;2.60;;;1.83;;
1026;SDS011;502;48.746;9.214;2024-01-27T00:10:08;3.53;;;2.00;;
1026;SDS011;502;48.746;9.214;2024-01-27T00:12:36;3.00;;;1.90;;
1026;SDS011;502;48.746;9.214;2024-01-27T00:15:01;3.00;;;2.00;;
1026;SDS011;502;48.746;9.214;2024-01-27T00:17:28;2.73;;;1.93;;
1026;SDS011;502;48.746;9.214;2024-01-27T00:19:56;3.87;;;2.07;;
1026;SDS011;502;48.746;9.214;2024-01-27T00:22:23;3.13;;;2.00;;
1026;SDS011;502;48.746;9.214;2024-01-27T00:24:49;3.37;;;1.80;;
1026;SDS011;502;48.746;9.214;2024-01-27T00:27:16;2.80;;;2.10;;
1026;SDS011;502;48.746;9.214;2024-01-27T00:29:42;3.70;;;1.80;;
1026;SDS011;502;48.746;9.214;2024-01-27T00:32:09;2.97;;;2.13;;
1026;SDS011;502;48.746;9.214;2024-01-27T00:34:35;3.43;;;2.30;;
1026;SDS011;502;48.746;9.214;2024-01-27T00:37:03;3.80;;;2.00;;
1026;SDS011;502;48.746;9.214;2024-01-27T00:39:31;4.00;;;2.63;;
1026;SDS011;502;48.746;9.214;2024-01-27T00:41:57;3.60;;;2.13;;
1026;SDS011;502;48.746;9.214;2024-01-27T00:44:24;4.27;;;2.20;;
1026;SDS011;502;48.746;9.214;2024-01-27T00:46:51;2.73;;;2.07;;
1026;SDS011;502;48.746;9.214;2024-01-27T00:49:17;3.40;;;2.57;;
1026;SDS011;502;48.746;9.214;2024-01-27T00:51:44;6.03;;;2.60;;
1026;SDS011;502;48.746;9.214;2024-01-27T00:54:12;3.00;;;2.00;;
1026;SDS011;502;48.746;9.214;2024-01-27T00:56:38;3.63;;;2.50;;
1026;SDS011;502;48.746;9.214;2024-01-27T00:59:05;2.63;;;2.13;;
1026;SDS011;502;48.746;9.214;2024-01-27T01:01:31;2.53;;;1.90;;
1026;SDS011;502;48.746;9.214;2024-01-27T01:03:58;2.57;;;2.03;;
1026;SDS011;502;48.746;9.214;2024-01-27T01:06:24;5.40;;;2.30;;
1026;SDS011;502;48.746;9.214;2024-01-27T01:08:51;4.40;;;2.03;;
1026;SDS011;502;48.746;9.214;2024-01-27T01:11:19;2.53;;;1.87;;
1026;SDS011;502;48.746;9.214;2024-01-27T01:13:46;2.90;;;2.13;;
1026;SDS011;502;48.746;9.214;2024-01-27T01:16:12;2.73;;;2.03;;
1026;SDS011;502;48.746;9.214;2024-01-27T01:18:39;4.10;;;2.40;;
1026;SDS011;502;48.746;9.214;2024-01-27T01:21:06;3.27;;;2.13;;
1026;SDS011;502;48.746;9.214;2024-01-27T01:23:32;2.50;;;1.90;;
1026;SDS011;502;48.746;9.214;2024-01-27T01:25:59;2.90;;;2.00;;
1026;SDS011;502;48.746;9.214;2024-01-27T01:28:27;2.40;;;2.07;;
1026;SDS011;502;48.746;9.214;2024-01-27T01:30:54;3.67;;;2.17;;
1026;SDS011;502;48.746;9.214;2024-01-27T01:33:21;3.23;;;2.10;;
1026;SDS011;502;48.746;9.214;2024-01-27T01:35:47;3.37;;;2.13;;
1026;SDS011;502;48.746;9.214;2024-01-27T01:38:14;2.50;;;1.83;;
1026;SDS011;502;48.746;9.214;2024-01-27T01:40:40;2.90;;;2.00;;
1026;SDS011;502;48.746;9.214;2024-01-27T01:43:09;2.80;;;1.60;;
1026;SDS011;502;48.746;9.214;2024-01-27T01:45:37;7.20;;;2.70;;
1026;SDS011;502;48.746;9.214;2024-01-27T01:48:04;2.77;;;2.00;;
1026;SDS011;502;48.746;9.214;2024-01-27T01:50:32;4.27;;;2.40;;
1026;SDS011;502;48.746;9.214;2024-01-27T01:52:58;3.43;;;2.50;;
1026;SDS011;502;48.746;9.214;2024-01-27T01:55:25;4.07;;;2.00;;
1026;SDS011;502;48.746;9.214;2024-01-27T01:57:52;3.77;;;2.30;;
1026;SDS011;502;48.746;9.214;2024-01-27T02:00:19;2.83;;;2.10;;
1026;SDS011;502;48.746;9.214;2024-01-27T02:02:47;3.10;;;2.57;;
1026;SDS011;502;48.746;9.214;2024-01-27T02:05:14;3.07;;;2.30;;
1026;SDS011;502;48.746;9.214;2024-01-27T02:07:41;3.30;;;2.20;;
1026;SDS011;502;48.746;9.214;2024-01-27T02:10:08;2.90;;;2.20;;
1026;SDS011;502;48.746;9.214;2024-01-27T02:12:39;4.43;;;2.43;;
1026;SDS011;502;48.746;9.214;2024-01-27T02:15:08;3.90;;;2.10;;
1026;SDS011;502;48.746;9.214;2024-01-27T02:17:36;3.03;;;2.00;;
1026;SDS011;502;48.746;9.214;2024-01-27T02:20:03;4.10;;;2.30;;
1026;SDS011;502;48.746;9.214;2024-01-27T02:22:31;2.63;;;2.13;;
1026;SDS011;502;48.746;9.214;2024-01-27T02:24:59;3.40;;;2.40;;
1026;SDS011;502;48.746;9.214;2024-01-27T02:27:26;3.30;;;2.10;;
1026;SDS011;502;48.746;9.214;2024-01-27T02:29:53;3.77;;;2.37;;
1026;SDS011;502;48.746;9.214;2024-01-27T02:32:20;2.73;;;2.17;;
1026;SDS011;502;48.746;9.214;2024-01-27T02:34:46;3.03;;;2.43;;
1026;SDS011;502;48.746;9.214;2024-01-27T02:37:13;4.30;;;2.63;;
1026;SDS011;502;48.746;9.214;2024-01-27T02:39:40;2.87;;;2.30;;
1026;SDS011;502;48.746;9.214;2024-01-27T02:42:08;3.80;;;2.57;;
1026;SDS011;502;48.746;9.214;2024-01-27T02:44:35;4.30;;;2.60;;
1026;SDS011;502;48.746;9.214;2024-01-27T02:47:01;4.33;;;2.83;;
1026;SDS011;502;48.746;9.214;2024-01-27T02:49:28;3.50;;;2.10;;
1026;SDS011;502;48.746;9.214;2024-01-27T02:51:55;6.00;;;2.70;;
1026;SDS011;502;48.746;9.214;2024-01-27T02:54:22;3.73;;;2.40;;
1026;SDS011;502;48.746;9.214;2024-01-27T02:56:48;4.60;;;2.70;;
1026;SDS011;502;48.746;9.214;2024-01-27T02:59:16;4.37;;;2.70;;
1026;SDS011;502;48.746;9.214;2024-01-27T03:01:43;3.07;;;2.77;;
1026;SDS011;502;48.746;9.214;2024-01-27T03:04:09;4.20;;;2.70;;
1026;SDS011;502;48.746;9.214;2024-01-27T03:06:36;5.10;;;2.70;;
1026;SDS011;502;48.746;9.214;2024-01-27T03:09:03;2.67;;;2.13;;
1026;SDS011;502;48.746;9.214;2024-01-27T03:11:30;4.80;;;2.43;;
1026;SDS011;502;48.746;9.214;2024-01-27T03:13:56;5.33;;;2.77;;
1026;SDS011;502;48.746;9.214;2024-01-27T03:16:24;3.60;;;3.00;;
1026;SDS011;502;48.746;9.214;2024-01-27T03:18:51;2.83;;;2.40;;
1026;SDS011;502;48.746;9.214;2024-01-27T03:21:17;3.50;;;2.43;;
1026;SDS011;502;48.746;9.214;2024-01-27T03:23:44;4.17;;;2.50;;
1026;SDS011;502;48.746;9.214;2024-01-27T03:29:05;5.77;;;2.80;;
1026;SDS011;502;48.746;9.214;2024-01-27T03:31:33;4.40;;;2.57;;
1026;SDS011;502;48.746;9.214;2024-01-27T03:34:01;5.73;;;2.80;;
1026;SDS011;502;48.746;9.214;2024-01-27T03:36:28;4.30;;;2.50;;
1026;SDS011;502;48.746;9.214;2024-01-27T03:38:55;4.90;;;2.87;;
1026;SDS011;502;48.746;9.214;2024-01-27T03:41:23;4.63;;;2.20;;
1026;SDS011;502;48.746;9.214;2024-01-27T03:43:49;2.90;;;2.30;;
1026;SDS011;502;48.746;9.214;2024-01-27T03:46:16;4.37;;;2.90;;
1026;SDS011;502;48.746;9.214;2024-01-27T03:48:44;4.20;;;2.70;;
1026;SDS011;502;48.746;9.214;2024-01-27T03:51:10;5.77;;;3.27;;
1026;SDS011;502;48.746;9.214;2024-01-27T03:53:37;3.43;;;2.60;;
1026;SDS011;502;48.746;9.214;2024-01-27T03:56:04;3.37;;;2.70;;
1026;SDS011;502;48.746;9.214;2024-01-27T03:58:31;5.43;;;3.70;;
1026;SDS011;502;48.746;9.214;2024-01-27T04:00:58;6.77;;;2.43;;
1026;SDS011;502;48.746;9.214;2024-01-27T04:03:25;5.87;;;2.80;;
1026;SDS011;502;48.746;9.214;2024-01-27T04:05:53;3.20;;;2.33;;
1026;SDS011;502;48.746;9.214;2024-01-27T04:08:19;4.10;;;3.13;;
1026;SDS011;502;48.746;9.214;2024-01-27T04:10:46;4.50;;;3.27;;
1026;SDS011;502;48.746;9.214;2024-01-27T04:13:12;4.23;;;2.40;;
1026;SDS011;502;48.746;9.214;2024-01-27T04:15:39;3.53;;;2.40;;
1026;SDS011;502;48.746;9.214;2024-01-27T04:18:06;5.50;;;3.20;;
1026;SDS011;502;48.746;9.214;2024-01-27T04:20:33;9.30;;;2.37;;
1026;SDS011;502;48.746;9.214;2024-01-27T04:23:01;3.60;;;2.90;;
1026;SDS011;502;48.746;9.214;2024-01-27T04:25:28;3.80;;;2.67;;
1026;SDS011;502;48.746;9.214;2024-01-27T04:27:54;3.50;;;2.53;;
1026;SDS011;502;48.746;9.214;2024-01-27T04:30:21;3.80;;;2.27;;
1026;SDS011;502;48.746;9.214;2024-01-27T04:32:47;6.03;;;3.30;;
1026;SDS011;502;48.746;9.214;2024-01-27T04:35:17;5.30;;;2.60;;
1026;SDS011;502;48.746;9.214;2024-01-27T04:37:43;5.53;;;2.50;;
1026;SDS011;502;48.746;9.214;2024-01-27T04:40:12;4.07;;;2.70;;
1026;SDS011;502;48.746;9.214;2024-01-27T04:42:39;3.70;;;3.10;;
1026;SDS011;502;48.746;9.214;2024-01-27T04:45:06;3.87;;;2.87;;
1026;SDS011;502;48.746;9.214;2024-01-27T04:47:33;2.73;;;2.33;;
1026;SDS011;502;48.746;9.214;2024-01-27T04:49:59;6.17;;;2.80;;
1026;SDS011;502;48.746;9.214;2024-01-27T04:52:26;4.10;;;2.47;;
1026;SDS011;502;48.746;9.214;2024-01-27T04:54:52;7.53;;;2.90;;
1026;SDS011;502;48.746;9.214;2024-01-27T04:57:20;3.80;;;2.63;;
1026;SDS011;502;48.746;9.214;2024-01-27T04:59:47;3.47;;;2.60;;
1026;SDS011;502;48.746;9.214;2024-01-27T05:02:13;3.27;;;2.77;;
1026;SDS011;502;48.746;9.214;2024-01-27T05:04:40;3.60;;;2.50;;
1026;SDS011;502;48.746;9.214;2024-01-27T05:07:08;3.33;;;2.20;;
1026;SDS011;502;48.746;9.214;2024-01-27T05:09:35;3.73;;;2.63;;
1026;SDS011;502;48.746;9.214;2024-01-27T05:12:02;7.47;;;2.80;;
1026;SDS011;502;48.746;9.214;2024-01-27T05:14:31;4.20;;;2.43;;
1026;SDS011;502;48.746;9.214;2024-01-27T05:16:57;4.90;;;2.50;;
1026;SDS011;502;48.746;9.214;2024-01-27T05:19:24;6.27;;;2.13;;
1026;SDS011;502;48.746;9.214;2024-01-27T05:21:51;5.17;;;2.93;;
1026;SDS011;502;48.746;9.214;2024-01-27T05:24:19;7.03;;;3.50;;
1026;SDS011;502;48.746;9.214;2024-01-27T05:26:55;3.40;;;2.60;;
1026;SDS011;502;48.746;9.214;2024-01-27T05:29:21;4.17;;;2.33;;
1026;SDS011;502;48.746;9.214;2024-01-27T05:31:52;3.10;;;2.20;;
1026;SDS011;502;48.746;9.214;2024-01-27T05:34:19;4.20;;;2.87;;
1026;SDS011;502;48.746;9.214;2024-01-27T05:36:48;4.60;;;2.70;;
1026;SDS011;502;48.746;9.214;2024-01-27T05:39:16;4.50;;;2.50;;
1026;SDS011;502;48.746;9.214;2024-01-27T05:41:43;4.90;;;2.80;;
1026;SDS011;502;48.746;9.214;2024-01-27T05:44:12;4.80;;;2.70;;
1026;SDS011;502;48.746;9.214;2024-01-27T05:46:48;3.27;;;2.87;;
1026;SDS011;502;48.746;9.214;2024-01-27T05:49:16;3.80;;;2.77;;
1026;SDS011;502;48.746;9.214;2024-01-27T05:51:45;3.30;;;2.70;;
1026;SDS011;502;48.746;9.214;2024-01-27T05:54:12;5.80;;;2.50;;
1026;SDS011;502;48.746;9.214;2024-01-27T05:56:41;5.80;;;3.13;;
1026;SDS011;502;48.746;9.214;2024-01-27T05:59:09;3.33;;;2.90;;
1026;SDS011;502;48.746;9.214;2024-01-27T06:01:38;3.57;;;2.53;;
1026;SDS011;502;48.746;9.214;2024-01-27T06:04:08;3.40;;;2.43;;
1026;SDS011;502;48.746;9.214;2024-01-27T06:06:38;5.37;;;3.40;;
1026;SDS011;502;48.746;9.214;2024-01-27T06:09:05;5.10;;;2.77;;
1026;SDS011;502;48.746;9.214;2024-01-27T06:11:36;2.80;;;2.43;;
1026;SDS011;502;48.746;9.214;2024-01-27T06:14:03;4.50;;;2.47;;
1026;SDS011;502;48.746;9.214;2024-01-27T06:16:29;6.13;;;2.87;;
1026;SDS011;502;48.746;9.214;2024-01-27T06:18:56;6.80;;;3.00;;
1026;SDS011;502;48.746;9.214;2024-01-27T06:21:23;5.97;;;3.40;;
1026;SDS011;502;48.746;9.214;2024-01-27T06:23:51;3.27;;;2.87;;
1026;SDS011;502;48.746;9.214;2024-01-27T06:26:19;5.63;;;3.37;;
1026;SDS011;502;48.746;9.214;2024-01-27T06:28:46;4.80;;;3.27;;
1026;SDS011;502;48.746;9.214;2024-01-27T06:31:13;5.10;;;3.43;;
1026;SDS011;502;48.746;9.214;2024-01-27T06:33:42;4.27;;;3.00;;
1026;SDS011;502;48.746;9.214;2024-01-27T06:36:09;5.10;;;2.33;;
1026;SDS011;502;48.746;9.214;2024-01-27T06:38:37;5.90;;;3.57;;
1026;SDS011;502;48.746;9.214;2024-01-27T06:41:05;4.17;;;3.30;;
1026;SDS011;502;48.746;9.214;2024-01-27T06:43:32;8.07;;;3.00;;
1026;SDS011;502;48.746;9.214;2024-01-27T06:45:59;3.80;;;2.33;;
1026;SDS011;502;48.746;9.214;2024-01-27T06:48:25;3.60;;;2.50;;
1026;SDS011;502;48.746;9.214;2024-01-27T06:50:52;4.27;;;2.57;;
1026;SDS011;502;48.746;9.214;2024-01-27T06:53:19;5.70;;;2.63;;
1026;SDS011;502;48.746;9.214;2024-01-27T06:55:46;5.63;;;2.57;;
1026;SDS011;502;48.746;9.214;2024-01-27T06:58:14;3.67;;;2.73;;
1026;SDS011;502;48.746;9.214;2024-01-27T07:00:40;3.30;;;2.63;;
1026;SDS011;502;48.746;9.214;2024-01-27T07:03:07;4.60;;;3.27;;
1026;SDS011;502;48.746;9.214;2024-01-27T07:05:34;4.50;;;3.10;;
1026;SDS011;502;48.746;9.214;2024-01-27T07:08:04;3.97;;;2.80;;
1026;SDS011;502;48.746;9.214;2024-01-27T07:10:32;4.50;;;3.23;;
1026;SDS011;502;48.746;9.214;2024-01-27T07:12:59;8.13;;;3.90;;
1026;SDS011;502;48.746;9.214;2024-01-27T07:15:27;7.67;;;5.40;;
1026;SDS011;502;48.746;9.214;2024-01-27T07:17:54;7.33;;;6.33;;
1026;SDS011;502;48.746;9.214;2024-01-27T07:20:21;7.80;;;6.50;;
1026;SDS011;502;48.746;9.214;2024-01-27T07:22:48;7.30;;;5.17;;
1026;SDS011;502;48.746;9.214;2024-01-27T07:25:15;6.63;;;4.80;;
1026;SDS011;502;48.746;9.214;2024-01-27T07:27:42;5.53;;;5.00;;
1026;SDS011;502;48.746;9.214;2024-01-27T07:30:09;7.27;;;4.70;;
1026;SDS011;502;48.746;9.214;2024-01-27T07:32:37;6.67;;;4.83;;
1026;SDS011;502;48.746;9.214;2024-01-27T07:35:06;6.00;;;4.40;;
1026;SDS011;502;48.746;9.214;2024-01-27T07:37:33;4.90;;;4.40;;
1026;SDS011;502;48.746;9.214;2024-01-27T07:39:59;7.27;;;4.50;;
1026;SDS011;502;48.746;9.214;2024-01-27T07:42:27;6.03;;;4.50;;
1026;SDS011;502;48.746;9.214;2024-01-27T07:44:53;8.10;;;5.23;;
1026;SDS011;502;48.746;9.214;2024-01-27T07:47:20;4.90;;;3.60;;
1026;SDS011;502;48.746;9.214;2024-01-27T07:49:48;7.53;;;3.93;;
1026;SDS011;502;48.746;9.214;2024-01-27T07:52:16;4.30;;;3.00;;
1026;SDS011;502;48.746;9.214;2024-01-27T07:54:43;5.10;;;3.23;;
1026;SDS011;502;48.746;9.214;2024-01-27T07:57:10;5.33;;;3.00;;
1026;SDS011;502;48.746;9.214;2024-01-27T07:59:38;3.90;;;2.70;;
1026;SDS011;502;48.746;9.214;2024-01-27T08:02:05;4.57;;;2.30;;
1026;SDS011;502;48.746;9.214;2024-01-27T08:04:32;5.90;;;2.60;;
1026;SDS011;502;48.746;9.214;2024-01-27T08:07:01;5.77;;;3.10;;
1026;SDS011;502;48.746;9.214;2024-01-27T08:09:31;5.07;;;3.10;;
1026;SDS011;502;48.746;9.214;2024-01-27T08:11:58;5.03;;;3.40;;
1026;SDS011;502;48.746;9.214;2024-01-27T08:14:25;6.60;;;4.07;;
1026;SDS011;502;48.746;9.214;2024-01-27T08:16:51;6.47;;;4.13;;
1026;SDS011;502;48.746;9.214;2024-01-27T08:19:19;5.20;;;3.83;;
1026;SDS011;502;48.746;9.214;2024-01-27T08:21:46;6.73;;;3.97;;
1026;SDS011;502;48.746;9.214;2024-01-27T08:24:14;4.93;;;4.33;;
1026;SDS011;502;48.746;9.214;2024-01-27T08:26:41;5.73;;;5.13;;
1026;SDS011;502;48.746;9.214;2024-01-27T08:29:08;10.43;;;6.03;;
1026;SDS011;502;48.746;9.214;2024-01-27T08:31:37;6.83;;;4.73;;
1026;SDS011;502;48.746;9.214;2024-01-27T08:34:04;5.00;;;4.43;;
1026;SDS011;502;48.746;9.214;2024-01-27T08:36:34;39.43;;;23.83;;
1026;SDS011;502;48.746;9.214;2024-01-27T08:39:02;42.13;;;28.40;;
1026;SDS011;502;48.746;9.214;2024-01-27T08:41:31;28.30;;;19.57;;
1026;SDS011;502;48.746;9.214;2024-01-27T08:43:57;17.90;;;13.17;;
1026;SDS011;502;48.746;9.214;2024-01-27T08:46:24;16.70;;;10.87;;
1026;SDS011;502;48.746;9.214;2024-01-27T08:48:51;9.30;;;7.30;;
1026;SDS011;502;48.746;9.214;2024-01-27T08:51:17;9.83;;;5.70;;
1026;SDS011;502;48.746;9.214;2024-01-27T08:53:44;6.13;;;4.30;;
1026;SDS011;502;48.746;9.214;2024-01-27T08:56:14;5.90;;;5.00;;
1026;SDS011;502;48.746;9.214;2024-01-27T08:58:42;6.63;;;5.30;;
1026;SDS011;502;48.746;9.214;2024-01-27T09:01:09;7.53;;;4.50;;
1026;SDS011;502;48.746;9.214;2024-01-27T09:03:38;6.57;;;4.70;;
1026;SDS011;502;48.746;9.214;2024-01-27T09:06:05;6.00;;;4.60;;
1026;SDS011;502;48.746;9.214;2024-01-27T09:08:32;6.23;;;4.97;;
1026;SDS011;502;48.746;9.214;2024-01-27T09:10:59;5.00;;;4.50;;
1026;SDS011;502;48.746;9.214;2024-01-27T09:13:25;6.50;;;4.93;;
1026;SDS011;502;48.746;9.214;2024-01-27T09:15:53;4.90;;;4.10;;
1026;SDS011;502;48.746;9.214;2024-01-27T09:18:20;9.63;;;5.50;;
1026;SDS011;502;48.746;9.214;2024-01-27T09:20:47;8.10;;;5.90;;
1026;SDS011;502;48.746;9.214;2024-01-27T09:23:13;8.50;;;5.77;;
1026;SDS011;502;48.746;9.214;2024-01-27T09:25:40;6.90;;;5.37;;
1026;SDS011;502;48.746;9.214;2024-01-27T09:28:07;7.57;;;5.10;;
1026;SDS011;502;48.746;9.214;2024-01-27T09:30:33;9.00;;;5.40;;
1026;SDS011;502;48.746;9.214;2024-01-27T09:33:01;9.53;;;5.77;;
1026;SDS011;502;48.746;9.214;2024-01-27T09:35:28;5.73;;;5.13;;
1026;SDS011;502;48.746;9.214;2024-01-27T09:37:54;8.23;;;4.77;;
1026;SDS011;502;48.746;9.214;2024-01-27T09:40:21;7.20;;;4.80;;
1026;SDS011;502;48.746;9.214;2024-01-27T09:42:50;8.17;;;5.77;;
1026;SDS011;502;48.746;9.214;2024-01-27T09:45:17;6.00;;;4.80;;
1026;SDS011;502;48.746;9.214;2024-01-27T09:47:43;5.80;;;5.13;;
1026;SDS011;502;48.746;9.214;2024-01-27T09:50:13;9.07;;;5.60;;
1026;SDS011;502;48.746;9.214;2024-01-27T09:52:40;5.83;;;5.10;;
1026;SDS011;502;48.746;9.214;2024-01-27T09:55:07;9.43;;;5.90;;
1026;SDS011;502;48.746;9.214;2024-01-27T09:57:34;7.67;;;5.83;;
1026;SDS011;502;48.746;9.214;2024-01-27T10:00:02;8.23;;;5.57;;
1026;SDS011;502;48.746;9.214;2024-01-27T10:02:30;8.57;;;5.87;;
1026;SDS011;502;48.746;9.214;2024-01-27T10:04:57;9.57;;;5.60;;
1026;SDS011;502;48.746;9.214;2024-01-27T10:07:25;7.40;;;5.10;;
1026;SDS011;502;48.746;9.214;2024-01-27T10:09:52;4.83;;;4.33;;
1026;SDS011;502;48.746;9.214;2024-01-27T10:12:18;5.43;;;4.30;;
1026;SDS011;502;48.746;9.214;2024-01-27T10:14:47;5.93;;;4.30;;
1026;SDS011;502;48.746;9.214;2024-01-27T10:17:21;5.10;;;4.17;;
1026;SDS011;502;48.746;9.214;2024-01-27T10:19:48;6.10;;;4.17;;
1026;SDS011;502;48.746;9.214;2024-01-27T10:22:36;6.77;;;3.30;;
1026;SDS011;502;48.746;9.214;2024-01-27T10:25:03;5.77;;;4.30;;
1026;SDS011;502;48.746;9.214;2024-01-27T10:27:32;7.30;;;4.80;;
1026;SDS011;502;48.746;9.214;2024-01-27T10:29:59;8.30;;;4.80;;
1026;SDS011;502;48.746;9.214;2024-01-27T10:32:28;7.43;;;4.90;;
1026;SDS011;502;48.746;9.214;2024-01-27T10:35:01;6.73;;;5.37;;
1026;SDS011;502;48.746;9.214;2024-01-27T10:37:31;8.67;;;5.67;;
1026;SDS011;502;48.746;9.214;2024-01-27T10:40:01;7.50;;;6.43;;
1026;SDS011;502;48.746;9.214;2024-01-27T10:42:29;7.40;;;5.77;;
1026;SDS011;502;48.746;9.214;2024-01-27T10:44:57;11.00;;;6.03;;
1026;SDS011;502;48.746;9.214;2024-01-27T10:47:24;8.90;;;5.90;;
1026;SDS011;502;48.746;9.214;2024-01-27T10:49:51;8.00;;;5.83;;
1026;SDS011;502;48.746;9.214;2024-01-27T10:52:18;8.80;;;5.50;;
1026;SDS011;502;48.746;9.214;2024-01-27T10:54:48;8.77;;;6.50;;
1026;SDS011;502;48.746;9.214;2024-01-27T10:57:17;8.80;;;4.87;;
1026;SDS011;502;48.746;9.214;2024-01-27T10:59:48;8.00;;;4.63;;
1026;SDS011;502;48.746;9.214;2024-01-27T11:02:19;10.47;;;5.03;;
1026;SDS011;502;48.746;9.214;2024-01-27T11:04:47;11.50;;;6.33;;
1026;SDS011;502;48.746;9.214;2024-01-27T11:07:17;8.40;;;6.20;;
1026;SDS011;502;48.746;9.214;2024-01-27T11:09:49;5.67;;;4.67;;
1026;SDS011;502;48.746;9.214;2024-01-27T11:12:17;8.40;;;5.83;;
1026;SDS011;502;48.746;9.214;2024-01-27T11:14:45;10.70;;;5.10;;
1026;SDS011;502;48.746;9.214;2024-01-27T11:17:14;8.93;;;4.50;;
1026;SDS011;502;48.746;9.214;2024-01-27T11:19:41;10.47;;;5.43;;
1026;SDS011;502;48.746;9.214;2024-01-27T11:22:17;6.30;;;4.70;;
1026;SDS011;502;48.746;9.214;2024-01-27T11:24:51;5.83;;;4.70;;
1026;SDS011;502;48.746;9.214;2024-01-27T11:27:18;7.33;;;6.40;;
1026;SDS011;502;48.746;9.214;2024-01-27T11:29:46;8.80;;;5.70;;
1026;SDS011;502;48.746;9.214;2024-01-27T11:32:13;9.10;;;5.80;;
1026;SDS011;502;48.746;9.214;2024-01-27T11:34:42;7.57;;;5.37;;
1026;SDS011;502;48.746;9.214;2024-01-27T11:37:14;7.43;;;5.30;;
1026;SDS011;502;48.746;9.214;2024-01-27T11:42:40;11.60;;;7.30;;
1026;SDS011;502;48.746;9.214;2024-01-27T11:45:07;8.50;;;6.50;;
1026;SDS011;502;48.746;9.214;2024-01-27T11:47:34;8.80;;;6.73;;
1026;SDS011;502;48.746;9.214;2024-01-27T11:50:01;9.23;;;5.97;;
1026;SDS011;502;48.746;9.214;2024-01-27T11:52:28;9.23;;;6.07;;
1026;SDS011;502;48.746;9.214;2024-01-27T11:54:55;9.83;;;6.53;;
1026;SDS011;502;48.746;9.214;2024-01-27T11:57:23;10.40;;;6.77;;
1026;SDS011;502;48.746;9.214;2024-01-27T11:59:50;10.10;;;6.40;;
1026;SDS011;502;48.746;9.214;2024-01-27T12:02:17;8.23;;;6.20;;
1026;SDS011;502;48.746;9.214;2024-01-27T12:04:44;7.50;;;6.77;;
1026;SDS011;502;48.746;9.214;2024-01-27T12:07:11;8.40;;;6.53;;
1026;SDS011;502;48.746;9.214;2024-01-27T12:09:37;16.63;;;6.27;;
1026;SDS011;502;48.746;9.214;2024-01-27T12:12:04;7.43;;;5.90;;
1026;SDS011;502;48.746;9.214;2024-01-27T12:14:38;8.27;;;5.60;;
1026;SDS011;502;48.746;9.214;2024-01-27T12:17:07;9.90;;;6.97;;
1026;SDS011;502;48.746;9.214;2024-01-27T12:19:34;8.77;;;6.10;;
1026;SDS011;502;48.746;9.214;2024-01-27T12:22:01;7.83;;;5.27;;
1026;SDS011;502;48.746;9.214;2024-01-27T12:24:28;6.33;;;5.37;;
1026;SDS011;502;48.746;9.214;2024-01-27T12:26:55;7.90;;;5.60;;
1026;SDS011;502;48.746;9.214;2024-01-27T12:29:22;8.63;;;5.47;;
1026;SDS011;502;48.746;9.214;2024-01-27T12:31:50;6.80;;;5.27;;
1026;SDS011;502;48.746;9.214;2024-01-27T12:34:17;6.80;;;5.30;;
1026;SDS011;502;48.746;9.214;2024-01-27T12:36:44;7.37;;;5.57;;
1026;SDS011;502;48.746;9.214;2024-01-27T12:39:11;7.13;;;5.40;;
1026;SDS011;502;48.746;9.214;2024-01-27T12:41:37;8.87;;;6.30;;
1026;SDS011;502;48.746;9.214;2024-01-27T12:44:05;7.87;;;5.50;;
1026;SDS011;502;48.746;9.214;2024-01-27T12:46:32;9.07;;;5.40;;
1026;SDS011;502;48.746;9.214;2024-01-27T12:49:00;7.03;;;4.90;;
1026;SDS011;502;48.746;9.214;2024-01-27T12:51:28;6.13;;;4.93;;
1026;SDS011;502;48.746;9.214;2024-01-27T12:53:54;10.37;;;4.87;;
1026;SDS011;502;48.746;9.214;2024-01-27T12:56:21;5.00;;;4.50;;
1026;SDS011;502;48.746;9.214;2024-01-27T12:58:57;10.67;;;5.57;;
1026;SDS011;502;48.746;9.214;2024-01-27T13:01:25;6.40;;;3.93;;
1026;SDS011;502;48.746;9.214;2024-01-27T13:03:52;6.43;;;4.03;;
1026;SDS011;502;48.746;9.214;2024-01-27T13:06:20;5.10;;;4.40;;
1026;SDS011;502;48.746;9.214;2024-01-27T13:08:48;5.50;;;4.10;;
1026;SDS011;502;48.746;9.214;2024-01-27T13:11:14;6.93;;;5.20;;
1026;SDS011;502;48.746;9.214;2024-01-27T13:13:41;7.93;;;4.63;;
1026;SDS011;502;48.746;9.214;2024-01-27T13:16:08;7.10;;;4.13;;
1026;SDS011;502;48.746;9.214;2024-01-27T13:18:35;3.50;;;3.17;;
1026;SDS011;502;48.746;9.214;2024-01-27T13:21:02;4.67;;;3.60;;
1026;SDS011;502;48.746;9.214;2024-01-27T13:23:32;5.80;;;3.70;;
1026;SDS011;502;48.746;9.214;2024-01-27T13:25:58;6.67;;;3.67;;
1026;SDS011;502;48.746;9.214;2024-01-27T13:28:25;4.17;;;3.20;;
1026;SDS011;502;48.746;9.214;2024-01-27T13:30:51;4.70;;;3.43;;
1026;SDS011;502;48.746;9.214;2024-01-27T13:33:18;3.90;;;3.40;;
1026;SDS011;502;48.746;9.214;2024-01-27T13:35:44;5.50;;;4.00;;
1026;SDS011;502;48.746;9.214;2024-01-27T13:38:12;6.37;;;3.40;;
1026;SDS011;502;48.746;9.214;2024-01-27T13:40:40;3.43;;;2.40;;
1026;SDS011;502;48.746;9.214;2024-01-27T13:43:06;6.33;;;2.67;;
1026;SDS011;502;48.746;9.214;2024-01-27T13:45:33;5.20;;;3.30;;
1026;SDS011;502;48.746;9.214;2024-01-27T13:48:00;4.77;;;3.20;;
1026;SDS011;502;48.746;9.214;2024-01-27T13:50:27;5.93;;;2.60;;
1026;SDS011;502;48.746;9.214;2024-01-27T13:52:56;5.90;;;3.23;;
1026;SDS011;502;48.746;9.214;2024-01-27T13:55:23;6.37;;;3.60;;
1026;SDS011;502;48.746;9.214;2024-01-27T13:57:51;9.17;;;3.00;;
1026;SDS011;502;48.746;9.214;2024-01-27T14:00:17;7.10;;;3.50;;
1026;SDS011;502;48.746;9.214;2024-01-27T14:02:45;4.30;;;2.90;;
1026;SDS011;502;48.746;9.214;2024-01-27T14:05:11;5.37;;;3.20;;
1026;SDS011;502;48.746;9.214;2024-01-27T14:07:38;5.93;;;2.20;;
1026;SDS011;502;48.746;9.214;2024-01-27T14:10:05;4.20;;;2.47;;
1026;SDS011;502;48.746;9.214;2024-01-27T14:12:32;3.40;;;2.17;;
1026;SDS011;502;48.746;9.214;2024-01-27T14:15:03;5.43;;;3.03;;
1026;SDS011;502;48.746;9.214;2024-01-27T14:17:32;4.60;;;2.63;;
1026;SDS011;502;48.746;9.214;2024-01-27T14:19:59;6.90;;;3.20;;
1026;SDS011;502;48.746;9.214;2024-01-27T14:22:26;3.80;;;2.17;;
1026;SDS011;502;48.746;9.214;2024-01-27T14:24:52;5.50;;;3.00;;
1026;SDS011;502;48.746;9.214;2024-01-27T14:27:19;5.70;;;3.00;;
1026;SDS011;502;48.746;9.214;2024-01-27T14:29:50;4.03;;;3.30;;
1026;SDS011;502;48.746;9.214;2024-01-27T14:32:19;5.20;;;3.20;;
1026;SDS011;502;48.746;9.214;2024-01-27T14:34:45;5.80;;;3.50;;
1026;SDS011;502;48.746;9.214;2024-01-27T14:37:12;7.60;;;3.77;;
1026;SDS011;502;48.746;9.214;2024-01-27T14:39:39;7.80;;;4.43;;
1026;SDS011;502;48.746;9.214;2024-01-27T14:42:07;5.90;;;4.40;;
1026;SDS011;502;48.746;9.214;2024-01-27T14:44:34;6.40;;;3.53;;
1026;SDS011;502;48.746;9.214;2024-01-27T14:47:01;8.63;;;4.47;;
1026;SDS011;502;48.746;9.214;2024-01-27T14:49:32;6.60;;;4.00;;
1026;SDS011;502;48.746;9.214;2024-01-27T14:51:58;7.57;;;4.17;;
1026;SDS011;502;48.746;9.214;2024-01-27T14:54:29;6.90;;;4.70;;
1026;SDS011;502;48.746;9.214;2024-01-27T14:56:55;6.07;;;4.50;;
1026;SDS011;502;48.746;9.214;2024-01-27T14:59:25;5.80;;;4.93;;
1026;SDS011;502;48.746;9.214;2024-01-27T15:01:51;10.77;;;5.80;;
1026;SDS011;502;48.746;9.214;2024-01-27T15:04:18;6.50;;;4.37;;
1026;SDS011;502;48.746;9.214;2024-01-27T15:06:46;6.93;;;3.90;;
1026;SDS011;502;48.746;9.214;2024-01-27T15:09:13;7.17;;;4.93;;
1026;SDS011;502;48.746;9.214;2024-01-27T15:11:41;5.30;;;4.80;;
1026;SDS011;502;48.746;9.214;2024-01-27T15:14:07;6.27;;;4.73;;
1026;SDS011;502;48.746;9.214;2024-01-27T15:16:34;5.23;;;4.50;;
1026;SDS011;502;48.746;9.214;2024-01-27T15:19:00;11.40;;;4.97;;
1026;SDS011;502;48.746;9.214;2024-01-27T15:21:27;5.33;;;4.70;;
1026;SDS011;502;48.746;9.214;2024-01-27T15:23:56;6.03;;;4.27;;
1026;SDS011;502;48.746;9.214;2024-01-27T15:26:22;7.90;;;4.70;;
1026;SDS011;502;48.746;9.214;2024-01-27T15:28:49;5.87;;;4.13;;
1026;SDS011;502;48.746;9.214;2024-01-27T15:31:15;6.03;;;3.40;;
1026;SDS011;502;48.746;9.214;2024-01-27T15:33:42;6.87;;;4.20;;
1026;SDS011;502;48.746;9.214;2024-01-27T15:36:09;5.90;;;3.93;;